sensor_id;sensor_type;location;lat;lon;timestamp;pressure;altitude;pressure_sealevel;temperature;humidity
24858;BME280;12935;50.782;6.074;2022-08-21T00:01:16;99662.53;;;17.45;100.00
24858;BME280;12935;50.782;6.074;2022-08-21T00:03:43;99659.78;;;17.45;100.00
24858;BME280;12935;50.782;6.074;2022-08-21T00:06:08;99658.56;;;17.46;100.00
24858;BME280;12935;50.782;6.074;2022-08-21T00:08:34;99660.97;;;17.44;100.00
24858;BME280;12935;50.782;6.074;2022-08-21T00:11:00;99653.91;;;17.43;100.00
24858;BME280;12935;50.782;6.074;2022-08-21T00:13:25;99649.69;;;17.39;100.00
24858;BME280;12935;50.782;6.074;2022-08-21T00:15:51;99647.78;;;17.36;100.00
24858;BME280;12935;50.782;6.074;2022-08-21T00:18:17;99647.88;;;17.32;100.00
24858;BME280;12935;50.782;6.074;2022-08-21T00:20:43;99638.72;;;17.35;100.00
24858;BME280;12935;50.782;6.074;2022-08-21T00:23:09;99644.25;;;17.35;100.00
24858;BME280;12935;50.782;6.074;2022-08-21T00:25:35;99635.53;;;17.37;100.00
24858;BME280;12935;50.782;6.074;2022-08-21T00:28:00;99636.66;;;17.39;100.00
24858;BME280;12935;50.782;6.074;2022-08-21T00:30:27;99633.88;;;17.39;100.00
24858;BME280;12935;50.782;6.074;2022-08-21T00:32:54;99635.97;;;17.35;100.00
24858;BME280;12935;50.782;6.074;2022-08-21T00:35:25;99632.84;;;17.33;100.00
24858;BME280;12935;50.782;6.074;2022-08-21T00:37:51;99629.44;;;17.29;100.00
24858;BME280;12935;50.782;6.074;2022-08-21T00:40:19;99627.72;;;17.19;100.00
24858;BME280;12935;50.782;6.074;2022-08-21T00:42:45;99631.25;;;17.19;100.00
24858;BME280;12935;50.782;6.074;2022-08-21T00:45:11;99625.28;;;17.21;100.00
24858;BME280;12935;50.782;6.074;2022-08-21T00:47:37;99624.94;;;17.19;100.00
24858;BME280;12935;50.782;6.074;2022-08-21T00:50:05;99626.44;;;17.07;100.00
24858;BME280;12935;50.782;6.074;2022-08-21T00:52:32;99620.78;;;16.98;100.00
24858;BME280;12935;50.782;6.074;2022-08-21T00:54:59;99614.66;;;16.91;100.00
24858;BME280;12935;50.782;6.074;2022-08-21T00:57:31;99630.19;;;16.84;100.00
24858;BME280;12935;50.782;6.074;2022-08-21T01:00:00;99630.28;;;16.81;100.00
24858;BME280;12935;50.782;6.074;2022-08-21T01:02:26;99624.00;;;16.80;100.00
24858;BME280;12935;50.782;6.074;2022-08-21T01:04:53;99623.56;;;16.82;100.00
24858;BME280;12935;50.782;6.074;2022-08-21T01:07:18;99629.44;;;16.84;100.00
24858;BME280;12935;50.782;6.074;2022-08-21T01:09:46;99619.59;;;16.83;100.00
24858;BME280;12935;50.782;6.074;2022-08-21T01:12:12;99633.41;;;16.83;100.00
24858;BME280;12935;50.782;6.074;2022-08-21T01:14:38;99629.00;;;16.69;100.00
24858;BME280;12935;50.782;6.074;2022-08-21T01:17:05;99625.56;;;16.65;100.00
24858;BME280;12935;50.782;6.074;2022-08-21T01:19:31;99629.94;;;16.63;100.00
24858;BME280;12935;50.782;6.074;2022-08-21T01:21:56;99630.72;;;16.63;100.00
24858;BME280;12935;50.782;6.074;2022-08-21T01:24:22;99631.63;;;16.57;100.00
24858;BME280;12935;50.782;6.074;2022-08-21T01:26:49;99630.84;;;16.56;100.00
24858;BME280;12935;50.782;6.074;2022-08-21T01:29:39;99628.44;;;16.58;100.00
24858;BME280;12935;50.782;6.074;2022-08-21T01:32:12;99623.44;;;16.53;100.00
24858;BME280;12935;50.782;6.074;2022-08-21T01:34:40;99621.66;;;16.46;100.00
24858;BME280;12935;50.782;6.074;2022-08-21T01:37:06;99633.44;;;16.47;100.00
24858;BME280;12935;50.782;6.074;2022-08-21T01:39:32;99628.53;;;16.38;100.00
24858;BME280;12935;50.782;6.074;2022-08-21T01:41:58;99635.41;;;16.30;100.00
24858;BME280;12935;50.782;6.074;2022-08-21T01:44:24;99634.47;;;16.21;100.00
24858;BME280;12935;50.782;6.074;2022-08-21T01:46:51;99635.31;;;16.18;100.00
24858;BME280;12935;50.782;6.074;2022-08-21T01:49:16;99637.53;;;16.23;100.00
24858;BME280;12935;50.782;6.074;2022-08-21T01:51:42;99636.09;;;16.18;100.00
24858;BME280;12935;50.782;6.074;2022-08-21T01:54:08;99634.97;;;16.16;100.00
24858;BME280;12935;50.782;6.074;2022-08-21T01:56:39;99630.16;;;16.20;100.00
24858;BME280;12935;50.782;6.074;2022-08-21T01:59:05;99631.34;;;16.19;100.00
24858;BME280;12935;50.782;6.074;2022-08-21T02:01:31;99630.56;;;16.18;100.00
24858;BME280;12935;50.782;6.074;2022-08-21T02:03:56;99631.84;;;16.13;100.00
24858;BME280;12935;50.782;6.074;2022-08-21T02:06:21;99620.66;;;16.04;100.00
24858;BME280;12935;50.782;6.074;2022-08-21T02:08:46;99618.31;;;16.03;100.00
24858;BME280;12935;50.782;6.074;2022-08-21T02:11:12;99614.06;;;15.98;100.00
24858;BME280;12935;50.782;6.074;2022-08-21T02:13:37;99614.50;;;15.97;100.00
24858;BME280;12935;50.782;6.074;2022-08-21T02:16:03;99626.72;;;15.96;100.00
24858;BME280;12935;50.782;6.074;2022-08-21T02:18:28;99623.44;;;15.65;100.00
24858;BME280;12935;50.782;6.074;2022-08-21T02:20:54;99634.78;;;15.47;100.00
24858;BME280;12935;50.782;6.074;2022-08-21T02:23:20;99630.31;;;15.57;100.00
24858;BME280;12935;50.782;6.074;2022-08-21T02:25:45;99633.25;;;15.66;100.00
24858;BME280;12935;50.782;6.074;2022-08-21T02:28:12;99626.50;;;15.70;100.00
24858;BME280;12935;50.782;6.074;2022-08-21T02:30:43;99627.25;;;15.71;100.00
24858;BME280;12935;50.782;6.074;2022-08-21T02:33:10;99632.69;;;15.74;100.00
24858;BME280;12935;50.782;6.074;2022-08-21T02:35:36;99641.16;;;15.84;100.00
24858;BME280;12935;50.782;6.074;2022-08-21T02:38:08;99632.63;;;15.78;100.00
24858;BME280;12935;50.782;6.074;2022-08-21T02:40:36;99626.19;;;15.85;100.00
24858;BME280;12935;50.782;6.074;2022-08-21T02:43:04;99626.78;;;15.92;100.00
24858;BME280;12935;50.782;6.074;2022-08-21T02:45:31;99631.75;;;16.01;100.00
24858;BME280;12935;50.782;6.074;2022-08-21T02:47:59;99636.47;;;16.00;100.00
24858;BME280;12935;50.782;6.074;2022-08-21T02:50:31;99631.69;;;16.04;100.00
24858;BME280;12935;50.782;6.074;2022-08-21T02:52:56;99627.97;;;16.11;100.00
24858;BME280;12935;50.782;6.074;2022-08-21T02:55:23;99632.56;;;16.18;100.00
24858;BME280;12935;50.782;6.074;2022-08-21T02:57:49;99630.06;;;16.23;100.00
24858;BME280;12935;50.782;6.074;2022-08-21T03:00:16;99632.38;;;16.25;100.00
24858;BME280;12935;50.782;6.074;2022-08-21T03:02:41;99628.59;;;16.19;100.00
24858;BME280;12935;50.782;6.074;2022-08-21T03:05:09;99623.94;;;16.16;100.00
24858;BME280;12935;50.782;6.074;2022-08-21T03:07:36;99617.44;;;16.06;100.00
24858;BME280;12935;50.782;6.074;2022-08-21T03:10:03;99612.81;;;16.03;100.00
24858;BME280;12935;50.782;6.074;2022-08-21T03:12:29;99613.94;;;16.05;100.00
24858;BME280;12935;50.782;6.074;2022-08-21T03:14:54;99617.00;;;16.07;100.00
24858;BME280;12935;50.782;6.074;2022-08-21T03:17:19;99607.38;;;15.99;100.00
24858;BME280;12935;50.782;6.074;2022-08-21T03:19:45;99604.19;;;16.01;100.00
24858;BME280;12935;50.782;6.074;2022-08-21T03:22:10;99608.22;;;15.96;100.00
24858;BME280;12935;50.782;6.074;2022-08-21T03:24:35;99613.78;;;15.93;100.00
24858;BME280;12935;50.782;6.074;2022-08-21T03:27:00;99611.81;;;15.93;100.00
24858;BME280;12935;50.782;6.074;2022-08-21T03:29:26;99606.47;;;15.86;100.00
24858;BME280;12935;50.782;6.074;2022-08-21T03:31:51;99614.69;;;15.90;100.00
24858;BME280;12935;50.782;6.074;2022-08-21T03:34:20;99614.94;;;15.95;100.00
24858;BME280;12935;50.782;6.074;2022-08-21T03:36:46;99613.13;;;15.89;100.00
24858;BME280;12935;50.782;6.074;2022-08-21T03:39:12;99610.38;;;15.89;100.00
24858;BME280;12935;50.782;6.074;2022-08-21T03:41:37;99613.97;;;15.86;100.00
24858;BME280;12935;50.782;6.074;2022-08-21T03:44:03;99613.63;;;15.84;100.00
24858;BME280;12935;50.782;6.074;2022-08-21T03:46:28;99624.13;;;15.89;100.00
24858;BME280;12935;50.782;6.074;2022-08-21T03:48:53;99629.72;;;15.85;100.00
24858;BME280;12935;50.782;6.074;2022-08-21T03:51:19;99621.38;;;15.89;100.00
24858;BME280;12935;50.782;6.074;2022-08-21T03:53:44;99628.22;;;16.00;100.00
24858;BME280;12935;50.782;6.074;2022-08-21T03:56:10;99628.28;;;15.97;100.00
24858;BME280;12935;50.782;6.074;2022-08-21T03:58:36;99629.13;;;15.94;100.00
24858;BME280;12935;50.782;6.074;2022-08-21T04:01:03;99633.44;;;15.95;100.00
24858;BME280;12935;50.782;6.074;2022-08-21T04:03:29;99623.25;;;15.92;100.00
24858;BME280;12935;50.782;6.074;2022-08-21T04:05:55;99631.47;;;15.95;100.00
24858;BME280;12935;50.782;6.074;2022-08-21T04:08:20;99635.50;;;15.91;100.00
24858;BME280;12935;50.782;6.074;2022-08-21T04:10:48;99630.06;;;15.87;100.00
24858;BME280;12935;50.782;6.074;2022-08-21T04:13:14;99640.75;;;15.85;100.00
24858;BME280;12935;50.782;6.074;2022-08-21T04:15:40;99639.19;;;15.84;100.00
24858;BME280;12935;50.782;6.074;2022-08-21T04:18:06;99645.53;;;15.81;100.00
24858;BME280;12935;50.782;6.074;2022-08-21T04:20:31;99651.91;;;15.78;100.00
24858;BME280;12935;50.782;6.074;2022-08-21T04:22:57;99645.53;;;15.81;100.00
24858;BME280;12935;50.782;6.074;2022-08-21T04:25:23;99642.00;;;15.81;100.00
24858;BME280;12935;50.782;6.074;2022-08-21T04:27:50;99648.31;;;15.81;100.00
24858;BME280;12935;50.782;6.074;2022-08-21T04:30:16;99649.16;;;15.78;100.00
24858;BME280;12935;50.782;6.074;2022-08-21T04:32:43;99651.47;;;15.79;100.00
24858;BME280;12935;50.782;6.074;2022-08-21T04:35:10;99650.94;;;15.68;100.00
24858;BME280;12935;50.782;6.074;2022-08-21T04:37:36;99652.47;;;15.69;100.00
24858;BME280;12935;50.782;6.074;2022-08-21T04:40:03;99648.41;;;15.58;100.00
24858;BME280;12935;50.782;6.074;2022-08-21T04:42:28;99650.41;;;15.54;100.00
24858;BME280;12935;50.782;6.074;2022-08-21T04:44:54;99652.69;;;15.59;100.00
24858;BME280;12935;50.782;6.074;2022-08-21T04:47:21;99653.13;;;15.57;100.00
24858;BME280;12935;50.782;6.074;2022-08-21T04:49:46;99644.78;;;15.61;100.00
24858;BME280;12935;50.782;6.074;2022-08-21T04:52:13;99635.72;;;15.60;100.00
24858;BME280;12935;50.782;6.074;2022-08-21T04:54:41;99631.78;;;15.61;100.00
24858;BME280;12935;50.782;6.074;2022-08-21T04:57:08;99631.41;;;15.59;100.00
24858;BME280;12935;50.782;6.074;2022-08-21T04:59:37;99635.50;;;15.51;100.00
24858;BME280;12935;50.782;6.074;2022-08-21T05:02:05;99635.13;;;15.49;100.00
24858;BME280;12935;50.782;6.074;2022-08-21T05:04:33;99634.66;;;15.54;100.00
24858;BME280;12935;50.782;6.074;2022-08-21T05:07:02;99636.00;;;15.66;100.00
24858;BME280;12935;50.782;6.074;2022-08-21T05:09:29;99629.94;;;15.74;100.00
24858;BME280;12935;50.782;6.074;2022-08-21T05:11:55;99634.94;;;15.79;100.00
24858;BME280;12935;50.782;6.074;2022-08-21T05:14:21;99635.31;;;15.82;100.00
24858;BME280;12935;50.782;6.074;2022-08-21T05:16:47;99629.72;;;15.85;100.00
24858;BME280;12935;50.782;6.074;2022-08-21T05:19:12;99639.81;;;15.92;100.00
24858;BME280;12935;50.782;6.074;2022-08-21T05:21:41;99653.50;;;15.95;100.00
24858;BME280;12935;50.782;6.074;2022-08-21T05:24:08;99653.44;;;15.99;100.00
24858;BME280;12935;50.782;6.074;2022-08-21T05:26:33;99653.38;;;16.02;100.00
24858;BME280;12935;50.782;6.074;2022-08-21T05:28:58;99663.44;;;16.09;100.00
24858;BME280;12935;50.782;6.074;2022-08-21T05:31:24;99660.56;;;16.16;100.00
24858;BME280;12935;50.782;6.074;2022-08-21T05:33:50;99654.69;;;16.14;100.00
24858;BME280;12935;50.782;6.074;2022-08-21T05:36:17;99656.94;;;16.19;100.00
24858;BME280;12935;50.782;6.074;2022-08-21T05:38:42;99652.53;;;16.22;100.00
24858;BME280;12935;50.782;6.074;2022-08-21T05:41:08;99661.78;;;16.31;100.00
24858;BME280;12935;50.782;6.074;2022-08-21T05:43:34;99653.44;;;16.35;100.00
24858;BME280;12935;50.782;6.074;2022-08-21T05:46:05;99656.19;;;16.35;100.00
24858;BME280;12935;50.782;6.074;2022-08-21T05:48:31;99645.34;;;16.44;100.00
24858;BME280;12935;50.782;6.074;2022-08-21T05:50:56;99647.75;;;16.58;100.00
24858;BME280;12935;50.782;6.074;2022-08-21T05:53:23;99650.75;;;16.67;100.00
24858;BME280;12935;50.782;6.074;2022-08-21T05:55:50;99640.28;;;16.75;100.00
24858;BME280;12935;50.782;6.074;2022-08-21T05:58:18;99637.03;;;16.64;100.00
24858;BME280;12935;50.782;6.074;2022-08-21T06:00:44;99642.59;;;16.60;100.00
24858;BME280;12935;50.782;6.074;2022-08-21T06:03:19;99645.00;;;16.58;100.00
24858;BME280;12935;50.782;6.074;2022-08-21T06:05:45;99642.13;;;16.65;100.00
24858;BME280;12935;50.782;6.074;2022-08-21T06:08:11;99640.13;;;16.82;100.00
24858;BME280;12935;50.782;6.074;2022-08-21T06:10:36;99632.94;;;16.84;100.00
24858;BME280;12935;50.782;6.074;2022-08-21T06:13:02;99635.97;;;16.90;100.00
24858;BME280;12935;50.782;6.074;2022-08-21T06:15:27;99632.44;;;16.90;100.00
24858;BME280;12935;50.782;6.074;2022-08-21T06:17:53;99638.72;;;16.90;100.00
24858;BME280;12935;50.782;6.074;2022-08-21T06:20:19;99638.34;;;17.04;100.00
24858;BME280;12935;50.782;6.074;2022-08-21T06:22:44;99648.47;;;17.11;100.00
24858;BME280;12935;50.782;6.074;2022-08-21T06:25:10;99641.13;;;17.04;100.00
24858;BME280;12935;50.782;6.074;2022-08-21T06:27:35;99647.91;;;17.16;100.00
24858;BME280;12935;50.782;6.074;2022-08-21T06:30:00;99647.66;;;17.27;100.00
24858;BME280;12935;50.782;6.074;2022-08-21T06:32:26;99648.56;;;17.36;100.00
24858;BME280;12935;50.782;6.074;2022-08-21T06:34:51;99653.03;;;17.46;99.90
24858;BME280;12935;50.782;6.074;2022-08-21T06:37:16;99651.63;;;17.54;98.36
24858;BME280;12935;50.782;6.074;2022-08-21T06:39:41;99659.72;;;17.62;97.23
24858;BME280;12935;50.782;6.074;2022-08-21T06:42:13;99666.03;;;17.62;96.33
24858;BME280;12935;50.782;6.074;2022-08-21T06:44:38;99674.81;;;17.73;95.65
24858;BME280;12935;50.782;6.074;2022-08-21T06:47:04;99668.50;;;17.73;95.73
24858;BME280;12935;50.782;6.074;2022-08-21T06:49:29;99666.63;;;17.70;95.71
24858;BME280;12935;50.782;6.074;2022-08-21T06:51:54;99669.63;;;17.75;96.30
24858;BME280;12935;50.782;6.074;2022-08-21T06:54:19;99668.09;;;17.87;95.43
24858;BME280;12935;50.782;6.074;2022-08-21T06:56:45;99665.59;;;17.93;93.08
24858;BME280;12935;50.782;6.074;2022-08-21T06:59:10;99663.59;;;17.93;90.37
24858;BME280;12935;50.782;6.074;2022-08-21T07:01:35;99665.69;;;18.02;90.47
24858;BME280;12935;50.782;6.074;2022-08-21T07:04:01;99659.31;;;18.17;89.96
24858;BME280;12935;50.782;6.074;2022-08-21T07:06:27;99671.03;;;18.21;87.65
24858;BME280;12935;50.782;6.074;2022-08-21T07:08:52;99671.91;;;18.31;87.10
24858;BME280;12935;50.782;6.074;2022-08-21T07:11:19;99678.38;;;18.41;86.86
24858;BME280;12935;50.782;6.074;2022-08-21T07:13:45;99670.16;;;18.50;85.84
24858;BME280;12935;50.782;6.074;2022-08-21T07:16:11;99670.16;;;18.50;85.47
24858;BME280;12935;50.782;6.074;2022-08-21T07:18:36;99676.59;;;18.60;85.08
24858;BME280;12935;50.782;6.074;2022-08-21T07:21:06;99672.94;;;18.63;84.99
24858;BME280;12935;50.782;6.074;2022-08-21T07:23:34;99672.41;;;18.68;84.04
24858;BME280;12935;50.782;6.074;2022-08-21T07:26:00;99671.28;;;18.78;84.10
24858;BME280;12935;50.782;6.074;2022-08-21T07:28:26;99668.72;;;18.83;83.79
24858;BME280;12935;50.782;6.074;2022-08-21T07:30:55;99675.22;;;18.89;82.16
24858;BME280;12935;50.782;6.074;2022-08-21T07:33:21;99664.03;;;18.93;79.13
24858;BME280;12935;50.782;6.074;2022-08-21T07:35:46;99671.13;;;18.94;77.69
24858;BME280;12935;50.782;6.074;2022-08-21T07:38:12;99665.38;;;19.01;77.61
24858;BME280;12935;50.782;6.074;2022-08-21T07:40:37;99670.47;;;19.03;75.78
24858;BME280;12935;50.782;6.074;2022-08-21T07:43:03;99663.88;;;19.09;76.91
24858;BME280;12935;50.782;6.074;2022-08-21T07:45:29;99671.75;;;19.11;76.00
24858;BME280;12935;50.782;6.074;2022-08-21T07:47:55;99676.81;;;19.25;76.84
24858;BME280;12935;50.782;6.074;2022-08-21T07:50:20;99667.22;;;19.39;76.60
24858;BME280;12935;50.782;6.074;2022-08-21T07:52:45;99658.75;;;19.55;75.50
24858;BME280;12935;50.782;6.074;2022-08-21T07:55:13;99665.00;;;19.68;75.42
24858;BME280;12935;50.782;6.074;2022-08-21T07:57:39;99652.25;;;19.71;73.32
24858;BME280;12935;50.782;6.074;2022-08-21T08:00:08;99650.53;;;19.64;73.40
24858;BME280;12935;50.782;6.074;2022-08-21T08:02:35;99648.66;;;19.61;74.57
24858;BME280;12935;50.782;6.074;2022-08-21T08:05:05;99646.97;;;19.64;75.04
24858;BME280;12935;50.782;6.074;2022-08-21T08:07:31;99648.56;;;19.74;74.51
24858;BME280;12935;50.782;6.074;2022-08-21T08:09:57;99637.81;;;19.98;74.53
24858;BME280;12935;50.782;6.074;2022-08-21T08:12:23;99641.41;;;20.16;72.67
24858;BME280;12935;50.782;6.074;2022-08-21T08:14:55;99642.34;;;20.13;72.32
24858;BME280;12935;50.782;6.074;2022-08-21T08:17:20;99643.34;;;20.28;73.37
24858;BME280;12935;50.782;6.074;2022-08-21T08:19:48;99636.97;;;20.50;72.13
24858;BME280;12935;50.782;6.074;2022-08-21T08:22:15;99637.72;;;20.50;71.24
24858;BME280;12935;50.782;6.074;2022-08-21T08:24:44;99644.72;;;20.64;71.28
24858;BME280;12935;50.782;6.074;2022-08-21T08:27:10;99645.97;;;20.72;71.26
24858;BME280;12935;50.782;6.074;2022-08-21T08:29:35;99642.28;;;20.75;70.67
24858;BME280;12935;50.782;6.074;2022-08-21T08:32:01;99637.34;;;20.79;70.36
24858;BME280;12935;50.782;6.074;2022-08-21T08:34:26;99644.13;;;20.69;69.70
24858;BME280;12935;50.782;6.074;2022-08-21T08:36:52;99636.28;;;20.86;69.27
24858;BME280;12935;50.782;6.074;2022-08-21T08:39:18;99632.41;;;20.74;69.31
24858;BME280;12935;50.782;6.074;2022-08-21T08:41:44;99622.53;;;20.73;69.36
24858;BME280;12935;50.782;6.074;2022-08-21T08:44:12;99626.22;;;20.70;70.03
24858;BME280;12935;50.782;6.074;2022-08-21T08:46:41;99625.63;;;20.84;69.73
24858;BME280;12935;50.782;6.074;2022-08-21T08:49:15;99618.72;;;21.07;68.70
24858;BME280;12935;50.782;6.074;2022-08-21T08:52:03;99616.44;;;21.24;67.91
24858;BME280;12935;50.782;6.074;2022-08-21T08:54:51;99606.53;;;21.41;66.13
24858;BME280;12935;50.782;6.074;2022-08-21T08:57:22;99606.25;;;21.39;65.78
24858;BME280;12935;50.782;6.074;2022-08-21T08:59:52;99608.19;;;21.57;65.37
24858;BME280;12935;50.782;6.074;2022-08-21T09:02:18;99599.53;;;21.73;64.85
24858;BME280;12935;50.782;6.074;2022-08-21T09:04:47;99608.75;;;21.97;64.21
24858;BME280;12935;50.782;6.074;2022-08-21T09:12:54;99610.06;;;22.20;60.83
24858;BME280;12935;50.782;6.074;2022-08-21T09:15:50;99609.47;;;22.16;60.75
24858;BME280;12935;50.782;6.074;2022-08-21T09:18:36;99616.44;;;22.12;60.26
24858;BME280;12935;50.782;6.074;2022-08-21T09:21:30;99607.88;;;22.24;60.50
24858;BME280;12935;50.782;6.074;2022-08-21T09:24:22;99609.22;;;22.38;60.47
24858;BME280;12935;50.782;6.074;2022-08-21T09:29:33;99615.59;;;22.62;59.01
24858;BME280;12935;50.782;6.074;2022-08-21T09:31:59;99618.84;;;22.61;58.71
24858;BME280;12935;50.782;6.074;2022-08-21T09:34:27;99613.59;;;22.63;58.50
24858;BME280;12935;50.782;6.074;2022-08-21T09:36:54;99608.97;;;22.84;58.16
24858;BME280;12935;50.782;6.074;2022-08-21T09:39:26;99619.66;;;22.85;58.00
24858;BME280;12935;50.782;6.074;2022-08-21T09:41:58;99617.31;;;23.07;56.35
24858;BME280;12935;50.782;6.074;2022-08-21T09:44:30;99620.75;;;23.02;56.24
24858;BME280;12935;50.782;6.074;2022-08-21T09:46:57;99616.50;;;23.31;54.68
24858;BME280;12935;50.782;6.074;2022-08-21T09:49:34;99610.22;;;23.45;55.55
24858;BME280;12935;50.782;6.074;2022-08-21T09:52:02;99602.84;;;23.71;55.17
24858;BME280;12935;50.782;6.074;2022-08-21T09:54:33;99596.09;;;23.63;54.06
24858;BME280;12935;50.782;6.074;2022-08-21T09:57:05;99599.47;;;23.67;53.73
24858;BME280;12935;50.782;6.074;2022-08-21T09:59:55;99589.72;;;23.77;52.13
24858;BME280;12935;50.782;6.074;2022-08-21T10:02:34;99596.78;;;23.88;52.92
24858;BME280;12935;50.782;6.074;2022-08-21T10:05:21;99598.06;;;24.22;51.15
24858;BME280;12935;50.782;6.074;2022-08-21T10:07:48;99594.81;;;24.58;51.47
24858;BME280;12935;50.782;6.074;2022-08-21T10:10:29;99593.66;;;24.85;51.04
24858;BME280;12935;50.782;6.074;2022-08-21T10:13:01;99593.22;;;24.92;49.75
24858;BME280;12935;50.782;6.074;2022-08-21T10:15:56;99597.00;;;24.69;49.62
24858;BME280;12935;50.782;6.074;2022-08-21T10:18:39;99592.16;;;24.90;48.61
24858;BME280;12935;50.782;6.074;2022-08-21T10:45:44;99573.72;;;25.64;45.39
24858;BME280;12935;50.782;6.074;2022-08-21T10:48:47;99572.06;;;25.58;45.83
24858;BME280;12935;50.782;6.074;2022-08-21T10:51:10;99569.13;;;25.67;45.69
24858;BME280;12935;50.782;6.074;2022-08-21T10:56:24;99577.34;;;26.39;44.79
24858;BME280;12935;50.782;6.074;2022-08-21T10:59:04;99587.19;;;27.31;42.59
24858;BME280;12935;50.782;6.074;2022-08-21T11:01:42;99575.47;;;27.38;40.55
24858;BME280;12935;50.782;6.074;2022-08-21T11:04:24;99576.22;;;27.38;40.43
24858;BME280;12935;50.782;6.074;2022-08-21T11:06:59;99571.84;;;27.20;41.21
24858;BME280;12935;50.782;6.074;2022-08-21T11:09:26;99575.00;;;27.95;40.97
24858;BME280;12935;50.782;6.074;2022-08-21T11:12:00;99574.50;;;27.91;40.08
24858;BME280;12935;50.782;6.074;2022-08-21T11:14:56;99576.03;;;27.92;38.50
24858;BME280;12935;50.782;6.074;2022-08-21T11:17:30;99587.78;;;27.74;39.53
24858;BME280;12935;50.782;6.074;2022-08-21T11:22:41;99572.69;;;28.27;38.22
24858;BME280;12935;50.782;6.074;2022-08-21T11:25:17;99571.81;;;28.71;37.13
24858;BME280;12935;50.782;6.074;2022-08-21T11:30:13;99568.13;;;27.85;37.52
24858;BME280;12935;50.782;6.074;2022-08-21T11:32:55;99573.47;;;27.77;38.75
24858;BME280;12935;50.782;6.074;2022-08-21T11:35:37;99573.41;;;27.33;38.69
24858;BME280;12935;50.782;6.074;2022-08-21T11:43:36;99585.72;;;28.08;36.36
24858;BME280;12935;50.782;6.074;2022-08-21T11:48:53;99571.63;;;27.46;37.17
24858;BME280;12935;50.782;6.074;2022-08-21T11:51:26;99565.06;;;27.94;37.61
24858;BME280;12935;50.782;6.074;2022-08-21T11:54:04;99565.03;;;28.22;37.00
24858;BME280;12935;50.782;6.074;2022-08-21T11:56:39;99563.75;;;28.12;36.75
24858;BME280;12935;50.782;6.074;2022-08-21T11:59:16;99560.84;;;27.11;37.86
24858;BME280;12935;50.782;6.074;2022-08-21T12:01:46;99551.25;;;26.70;39.34
24858;BME280;12935;50.782;6.074;2022-08-21T12:04:35;99554.06;;;26.70;39.99
24858;BME280;12935;50.782;6.074;2022-08-21T12:07:17;99554.88;;;26.92;39.05
24858;BME280;12935;50.782;6.074;2022-08-21T12:09:55;99560.34;;;27.07;39.55
24858;BME280;12935;50.782;6.074;2022-08-21T12:12:28;99559.84;;;27.14;39.03
24858;BME280;12935;50.782;6.074;2022-08-21T12:15:26;99560.25;;;26.37;39.75
24858;BME280;12935;50.782;6.074;2022-08-21T12:18:04;99569.34;;;26.69;39.21
24858;BME280;12935;50.782;6.074;2022-08-21T12:20:41;99566.75;;;27.24;38.34
24858;BME280;12935;50.782;6.074;2022-08-21T12:25:46;99558.91;;;28.07;37.97
24858;BME280;12935;50.782;6.074;2022-08-21T12:28:15;99555.84;;;27.93;37.35
24858;BME280;12935;50.782;6.074;2022-08-21T12:30:46;99559.41;;;28.33;37.00
24858;BME280;12935;50.782;6.074;2022-08-21T12:33:22;99554.94;;;28.66;37.25
24858;BME280;12935;50.782;6.074;2022-08-21T12:35:51;99547.56;;;29.20;36.19
24858;BME280;12935;50.782;6.074;2022-08-21T12:38:21;99547.41;;;29.02;35.85
24858;BME280;12935;50.782;6.074;2022-08-21T12:40:56;99549.81;;;28.75;35.96
24858;BME280;12935;50.782;6.074;2022-08-21T12:43:28;99546.47;;;28.77;35.88
24858;BME280;12935;50.782;6.074;2022-08-21T12:45:55;99545.16;;;28.94;36.42
24858;BME280;12935;50.782;6.074;2022-08-21T12:48:28;99549.38;;;29.12;35.48
24858;BME280;12935;50.782;6.074;2022-08-21T12:50:58;99548.19;;;30.33;34.44
24858;BME280;12935;50.782;6.074;2022-08-21T12:53:57;99548.53;;;30.48;33.70
24858;BME280;12935;50.782;6.074;2022-08-21T12:56:25;99550.47;;;29.80;34.24
24858;BME280;12935;50.782;6.074;2022-08-21T12:58:57;99546.97;;;30.04;33.73
24858;BME280;12935;50.782;6.074;2022-08-21T13:01:31;99544.78;;;29.86;33.51
24858;BME280;12935;50.782;6.074;2022-08-21T13:04:03;99553.78;;;29.49;33.84
24858;BME280;12935;50.782;6.074;2022-08-21T13:06:32;99546.63;;;29.07;34.13
24858;BME280;12935;50.782;6.074;2022-08-21T13:09:04;99545.97;;;29.66;34.33
24858;BME280;12935;50.782;6.074;2022-08-21T13:11:31;99534.81;;;30.63;33.72
24858;BME280;12935;50.782;6.074;2022-08-21T13:13:57;99536.19;;;31.96;31.24
24858;BME280;12935;50.782;6.074;2022-08-21T13:16:28;99549.94;;;33.86;28.61
24858;BME280;12935;50.782;6.074;2022-08-21T13:18:59;99543.22;;;33.97;27.80
24858;BME280;12935;50.782;6.074;2022-08-21T13:21:33;99530.81;;;32.77;28.88
24858;BME280;12935;50.782;6.074;2022-08-21T13:26:42;99540.38;;;31.07;31.33
24858;BME280;12935;50.782;6.074;2022-08-21T13:29:14;99537.03;;;29.62;33.58
24858;BME280;12935;50.782;6.074;2022-08-21T13:31:45;99533.22;;;28.66;35.41
24858;BME280;12935;50.782;6.074;2022-08-21T13:34:11;99541.53;;;27.36;37.21
24858;BME280;12935;50.782;6.074;2022-08-21T13:36:39;99541.00;;;26.55;38.54
24858;BME280;12935;50.782;6.074;2022-08-21T13:39:11;99543.25;;;26.09;39.90
24858;BME280;12935;50.782;6.074;2022-08-21T13:41:40;99543.31;;;25.83;41.06
24858;BME280;12935;50.782;6.074;2022-08-21T13:44:23;99542.28;;;25.80;41.22
24858;BME280;12935;50.782;6.074;2022-08-21T13:46:52;99538.19;;;25.81;41.73
24858;BME280;12935;50.782;6.074;2022-08-21T13:49:22;99539.34;;;25.64;42.09
24858;BME280;12935;50.782;6.074;2022-08-21T13:51:50;99529.78;;;25.50;41.91
24858;BME280;12935;50.782;6.074;2022-08-21T13:54:32;99531.81;;;25.24;42.48
24858;BME280;12935;50.782;6.074;2022-08-21T13:56:58;99525.25;;;25.27;43.10
24858;BME280;12935;50.782;6.074;2022-08-21T13:59:30;99530.06;;;25.26;43.26